Time;durP1;ratioP1;P1;durP2;ratioP2;P2;SDS_P1;SDS_P2;PMS_P1;PMS_P2;Temp;Humidity;BMP_temperature;BMP_pressure;BME280_temperature;BME280_humidity;BME280_pressure;Samples;Min_cycle;Max_cycle;Signal;HPM_P1;HPM_P2
2023/01/05 00:02:23;;;;;;;4.65;1.50;;;;;;;;;;5017124;28;20207;-88
2023/01/05 00:04:51;;;;;;;2.97;1.63;;;;;;;;;;5018004;28;20253;-88
2023/01/05 00:07:19;;;;;;;3.45;1.20;;;;;;;;;;5017895;28;20210;-88
2023/01/05 00:09:46;;;;;;;6.18;4.75;;;;;;;;;;5024418;28;20202;-87
2023/01/05 00:23:19;;;;;;;2.50;1.60;;;;;;;;;;5016564;28;20206;-89
2023/01/05 00:25:46;;;;;;;2.55;1.50;;;;;;;;;;5030786;28;20228;-89
2023/01/05 00:28:14;;;;;;;4.38;1.77;;;;;;;;;;5016854;28;20222;-89
2023/01/05 00:30:43;;;;;;;3.67;1.80;;;;;;;;;;5017460;28;20234;-89
2023/01/05 00:33:12;;;;;;;2.80;1.40;;;;;;;;;;5016483;28;20286;-89
2023/01/05 00:35:42;;;;;;;5.57;2.17;;;;;;;;;;5016648;28;20246;-88
2023/01/05 00:38:09;;;;;;;5.40;2.25;;;;;;;;;;5017229;28;20667;-88
2023/01/05 00:40:37;;;;;;;2.47;1.52;;;;;;;;;;5017014;28;20643;-88
2023/01/05 00:43:05;;;;;;;6.68;1.35;;;;;;;;;;5017095;28;20694;-89
2023/01/05 00:45:33;;;;;;;2.60;1.70;;;;;;;;;;5017344;28;20253;-89
2023/01/05 00:48:00;;;;;;;4.47;1.50;;;;;;;;;;5017316;28;20286;-89
2023/01/05 00:50:28;;;;;;;3.47;2.03;;;;;;;;;;5017286;28;20206;-89
2023/01/05 00:52:57;;;;;;;3.63;1.42;;;;;;;;;;5017061;28;20191;-89
2023/01/05 00:55:24;;;;;;;5.40;2.10;;;;;;;;;;5016668;28;20318;-89
2023/01/05 00:57:52;;;;;;;5.93;2.50;;;;;;;;;;5016864;28;20262;-88
2023/01/05 01:00:20;;;;;;;5.85;2.15;;;;;;;;;;5016729;28;20206;-89
2023/01/05 01:02:50;;;;;;;2.58;1.90;;;;;;;;;;5016943;28;20301;-88
2023/01/05 01:05:18;;;;;;;4.10;2.33;;;;;;;;;;5016058;28;20207;-87
2023/01/05 01:07:47;;;;;;;3.75;1.67;;;;;;;;;;5005051;28;20290;-88
2023/01/05 01:10:16;;;;;;;7.22;2.22;;;;;;;;;;5013567;28;20229;-88
2023/01/05 01:12:43;;;;;;;5.47;2.30;;;;;;;;;;5017389;28;20884;-88
2023/01/05 01:15:12;;;;;;;4.80;1.75;;;;;;;;;;5027793;28;20223;-89
2023/01/05 01:17:39;;;;;;;5.18;2.00;;;;;;;;;;5020906;28;20282;-89
2023/01/05 01:20:09;;;;;;;3.67;1.98;;;;;;;;;;5020832;28;20294;-88
2023/01/05 01:22:36;;;;;;;4.32;2.00;;;;;;;;;;5020971;28;20715;-89
2023/01/05 01:25:05;;;;;;;5.20;2.20;;;;;;;;;;5020014;28;20243;-88
2023/01/05 01:27:34;;;;;;;5.65;2.50;;;;;;;;;;5019163;28;20198;-88
2023/01/05 01:30:01;;;;;;;5.75;2.72;;;;;;;;;;5020045;28;20233;-89
2023/01/05 01:32:29;;;;;;;8.50;2.55;;;;;;;;;;5020062;28;20249;-89
2023/01/05 01:34:56;;;;;;;5.85;2.10;;;;;;;;;;5018737;28;20215;-89
2023/01/05 01:37:24;;;;;;;5.97;1.90;;;;;;;;;;5019169;28;20629;-88
2023/01/05 01:39:51;;;;;;;4.22;2.00;;;;;;;;;;5018473;28;20238;-89
2023/01/05 01:42:19;;;;;;;5.90;2.25;;;;;;;;;;5018928;28;20243;-88
2023/01/05 01:44:55;;;;;;;3.08;1.73;;;;;;;;;;5018332;28;20257;-88
2023/01/05 01:47:34;;;;;;;2.35;1.65;;;;;;;;;;5020594;28;20183;-88
2023/01/05 01:50:05;;;;;;;2.05;1.70;;;;;;;;;;5020097;28;20250;-89
2023/01/05 01:52:33;;;;;;;2.25;1.98;;;;;;;;;;5020616;28;20179;-88
2023/01/05 01:55:02;;;;;;;7.47;2.90;;;;;;;;;;5020354;28;20302;-89
2023/01/05 01:57:29;;;;;;;4.22;1.70;;;;;;;;;;5019765;28;20290;-88
2023/01/05 02:00:00;;;;;;;8.35;3.13;;;;;;;;;;5019394;28;20207;-89
2023/01/05 02:02:28;;;;;;;4.90;2.63;;;;;;;;;;5020065;28;20660;-89
2023/01/05 02:04:56;;;;;;;5.55;2.13;;;;;;;;;;5019396;28;20290;-89
2023/01/05 02:07:25;;;;;;;2.97;1.67;;;;;;;;;;5018862;28;20261;-89
2023/01/05 02:09:53;;;;;;;4.38;2.25;;;;;;;;;;5014049;28;20250;-87
2023/01/05 02:12:33;;;;;;;5.57;2.53;;;;;;;;;;5013242;28;20235;-88
2023/01/05 02:15:17;;;;;;;8.45;2.88;;;;;;;;;;5000090;28;20237;-88
2023/01/05 02:17:57;;;;;;;4.53;2.05;;;;;;;;;;5000304;28;20172;-89
2023/01/05 02:21:01;;;;;;;5.32;2.25;;;;;;;;;;4996090;28;20242;-89
2023/01/05 02:23:51;;;;;;;4.10;2.40;;;;;;;;;;5001626;28;20193;-89
2023/01/05 02:27:15;;;;;;;7.75;2.38;;;;;;;;;;4995948;28;20203;-89
2023/01/05 02:30:58;;;;;;;5.63;3.20;;;;;;;;;;4962578;28;20219;-89
2023/01/05 02:33:40;;;;;;;5.38;2.40;;;;;;;;;;4917398;29;20194;-88
2023/01/05 02:36:16;;;;;;;9.70;3.63;;;;;;;;;;4935570;29;20198;-88
2023/01/05 02:38:49;;;;;;;5.82;2.60;;;;;;;;;;4996939;28;20211;-88
2023/01/05 02:41:22;;;;;;;6.32;1.90;;;;;;;;;;4995980;28;20696;-90
2023/01/05 02:43:49;;;;;;;6.20;2.22;;;;;;;;;;5003014;28;20194;-89
2023/01/05 02:46:17;;;;;;;8.80;2.60;;;;;;;;;;5014832;28;20231;-89
2023/01/05 02:48:47;;;;;;;1.98;1.75;;;;;;;;;;5014645;28;20203;-89
2023/01/05 02:51:18;;;;;;;5.38;2.72;;;;;;;;;;5015052;28;20229;-88
2023/01/05 02:53:51;;;;;;;5.35;2.47;;;;;;;;;;5000278;28;20285;-90
2023/01/05 02:56:22;;;;;;;4.45;2.72;;;;;;;;;;5009249;28;20196;-89
2023/01/05 02:58:53;;;;;;;10.75;3.25;;;;;;;;;;5012806;28;20927;-89
2023/01/05 03:01:23;;;;;;;5.85;1.80;;;;;;;;;;5015031;28;20254;-89
2023/01/05 03:03:55;;;;;;;3.60;2.10;;;;;;;;;;5014621;28;20187;-89
2023/01/05 03:06:28;;;;;;;2.38;1.73;;;;;;;;;;5029456;28;20282;-89
2023/01/05 03:08:59;;;;;;;4.22;2.33;;;;;;;;;;5031498;28;20248;-88
2023/01/05 03:14:22;;;;;;;5.45;2.28;;;;;;;;;;5014550;28;20281;-88
2023/01/05 03:16:52;;;;;;;4.30;2.63;;;;;;;;;;5014574;28;20191;-89
2023/01/05 03:19:38;;;;;;;3.85;2.15;;;;;;;;;;5014319;28;20317;-89
2023/01/05 03:36:24;;;;;;;2.65;1.70;;;;;;;;;;5013571;28;20234;-89
2023/01/05 03:38:52;;;;;;;5.72;2.67;;;;;;;;;;5013266;28;20213;-88
2023/01/05 03:41:22;;;;;;;2.70;1.80;;;;;;;;;;5014321;28;20226;-89
2023/01/05 03:43:50;;;;;;;4.32;2.58;;;;;;;;;;5013923;28;20735;-89
2023/01/05 03:46:20;;;;;;;4.15;2.47;;;;;;;;;;5014175;28;20287;-88
2023/01/05 03:48:48;;;;;;;7.57;2.97;;;;;;;;;;5025203;28;20704;-88
2023/01/05 03:51:16;;;;;;;4.57;2.70;;;;;;;;;;5013770;28;20237;-90
2023/01/05 03:53:45;;;;;;;4.40;1.92;;;;;;;;;;5013750;28;20221;-89
2023/01/05 03:56:13;;;;;;;6.20;3.00;;;;;;;;;;5014853;28;20195;-88
2023/01/05 03:58:40;;;;;;;8.35;2.60;;;;;;;;;;5005220;28;20207;-89
2023/01/05 04:01:08;;;;;;;5.38;2.75;;;;;;;;;;5014019;28;20203;-89
2023/01/05 04:03:35;;;;;;;3.03;1.85;;;;;;;;;;5012958;28;20226;-89
2023/01/05 04:06:03;;;;;;;4.22;2.20;;;;;;;;;;5013191;28;20250;-89
2023/01/05 04:08:31;;;;;;;9.32;3.10;;;;;;;;;;4997185;28;20286;-89
2023/01/05 04:11:12;;;;;;;6.13;2.40;;;;;;;;;;4993929;28;20234;-89
2023/01/05 04:13:39;;;;;;;9.70;3.33;;;;;;;;;;5004010;28;20641;-89
2023/01/05 04:16:08;;;;;;;5.97;2.03;;;;;;;;;;5013463;28;20589;-89
2023/01/05 04:18:35;;;;;;;2.95;1.88;;;;;;;;;;5013025;28;20278;-89
2023/01/05 04:21:03;;;;;;;2.58;1.77;;;;;;;;;;5013161;28;20205;-89
2023/01/05 04:23:31;;;;;;;5.25;2.38;;;;;;;;;;5013424;28;20202;-88
2023/01/05 04:26:00;;;;;;;4.03;2.30;;;;;;;;;;5032716;28;20649;-88
2023/01/05 04:28:28;;;;;;;3.42;2.95;;;;;;;;;;5032669;28;20290;-88
2023/01/05 04:30:56;;;;;;;5.65;2.42;;;;;;;;;;5026046;28;20225;-89
2023/01/05 04:33:25;;;;;;;7.30;2.60;;;;;;;;;;5028127;28;20381;-89
2023/01/05 04:35:52;;;;;;;7.35;2.70;;;;;;;;;;5033189;28;20309;-89
2023/01/05 04:38:20;;;;;;;5.50;2.70;;;;;;;;;;5029678;28;20206;-89
2023/01/05 04:40:49;;;;;;;6.22;2.33;;;;;;;;;;5022397;28;20293;-89
2023/01/05 04:43:18;;;;;;;4.03;2.75;;;;;;;;;;5013330;28;20237;-89
2023/01/05 04:45:49;;;;;;;5.80;2.65;;;;;;;;;;5013275;28;20224;-88
2023/01/05 04:48:16;;;;;;;2.75;2.40;;;;;;;;;;5012240;28;20290;-88
2023/01/05 04:50:44;;;;;;;4.57;2.33;;;;;;;;;;5013234;28;20315;-88
2023/01/05 04:53:12;;;;;;;4.97;2.95;;;;;;;;;;5012982;28;20282;-89
2023/01/05 04:55:39;;;;;;;6.03;2.88;;;;;;;;;;5013220;28;20258;-88
2023/01/05 04:58:07;;;;;;;5.32;2.55;;;;;;;;;;5020067;28;20205;-88
2023/01/05 05:00:36;;;;;;;4.70;2.53;;;;;;;;;;5012573;28;20257;-89
2023/01/05 05:03:04;;;;;;;5.78;2.20;;;;;;;;;;5013032;28;20253;-88
2023/01/05 05:05:32;;;;;;;4.30;2.53;;;;;;;;;;5029546;28;20237;-89
2023/01/05 05:07:59;;;;;;;4.15;2.63;;;;;;;;;;5032323;28;20241;-88
2023/01/05 05:10:28;;;;;;;6.85;3.20;;;;;;;;;;5026634;28;20279;-89
2023/01/05 05:12:55;;;;;;;5.22;2.38;;;;;;;;;;5013107;28;20227;-89
2023/01/05 05:15:23;;;;;;;4.40;2.75;;;;;;;;;;5013046;28;20716;-89
2023/01/05 05:17:52;;;;;;;4.95;2.70;;;;;;;;;;5012464;28;20203;-88
2023/01/05 05:20:19;;;;;;;7.50;3.13;;;;;;;;;;5012949;28;20288;-88
2023/01/05 05:22:47;;;;;;;4.78;2.88;;;;;;;;;;5012961;28;20289;-89
2023/01/05 05:25:14;;;;;;;7.30;2.88;;;;;;;;;;5012246;28;20233;-89
2023/01/05 05:27:42;;;;;;;7.53;2.70;;;;;;;;;;5013136;28;20720;-89
2023/01/05 05:30:10;;;;;;;3.50;2.25;;;;;;;;;;5012270;28;20610;-88
2023/01/05 05:32:38;;;;;;;7.85;2.95;;;;;;;;;;5029113;28;20225;-89
2023/01/05 05:35:08;;;;;;;7.47;3.50;;;;;;;;;;5032281;28;20309;-88
2023/01/05 05:37:36;;;;;;;1.85;1.60;;;;;;;;;;5032547;28;20199;-88
2023/01/05 05:40:04;;;;;;;3.33;2.20;;;;;;;;;;5020616;28;20213;-88
2023/01/05 05:42:32;;;;;;;2.78;2.25;;;;;;;;;;5033383;28;20253;-88
2023/01/05 05:44:59;;;;;;;5.13;2.55;;;;;;;;;;5033382;28;20304;-88
2023/01/05 05:47:27;;;;;;;4.72;2.35;;;;;;;;;;5034222;28;20267;-88
2023/01/05 05:49:54;;;;;;;4.18;1.90;;;;;;;;;;5016853;28;20294;-88
2023/01/05 05:52:31;;;;;;;6.55;2.33;;;;;;;;;;5012815;28;20223;-88
2023/01/05 05:54:59;;;;;;;2.55;1.80;;;;;;;;;;5009741;28;20223;-89
2023/01/05 05:57:26;;;;;;;2.47;1.90;;;;;;;;;;5009230;28;20204;-88
2023/01/05 05:59:54;;;;;;;3.50;1.92;;;;;;;;;;5005009;28;20231;-88
2023/01/05 06:02:21;;;;;;;1.38;1.27;;;;;;;;;;4996468;28;20200;-88
2023/01/05 06:04:49;;;;;;;5.35;1.83;;;;;;;;;;5002299;28;20314;-88
2023/01/05 06:07:16;;;;;;;2.00;1.77;;;;;;;;;;5011219;28;20235;-88
2023/01/05 06:09:45;;;;;;;2.35;1.67;;;;;;;;;;5005295;28;20204;-88
2023/01/05 06:12:12;;;;;;;8.38;3.00;;;;;;;;;;5022667;28;20249;-88
2023/01/05 06:14:40;;;;;;;4.93;1.98;;;;;;;;;;5024989;28;20310;-88
2023/01/05 06:17:07;;;;;;;3.25;2.38;;;;;;;;;;5016490;28;20290;-86
2023/01/05 06:19:35;;;;;;;4.03;2.55;;;;;;;;;;5018833;28;20329;-88
2023/01/05 06:22:11;;;;;;;4.57;2.47;;;;;;;;;;5019288;28;20676;-88
2023/01/05 06:24:39;;;;;;;2.53;2.10;;;;;;;;;;5018751;28;20254;-87
2023/01/05 06:27:09;;;;;;;7.25;2.80;;;;;;;;;;5017455;28;20199;-87
2023/01/05 06:29:37;;;;;;;5.35;2.47;;;;;;;;;;5018240;28;20206;-88
2023/01/05 06:32:04;;;;;;;4.53;2.38;;;;;;;;;;5018199;28;20254;-88
2023/01/05 06:34:32;;;;;;;3.58;1.98;;;;;;;;;;5017751;28;20250;-88
2023/01/05 06:36:59;;;;;;;3.42;1.42;;;;;;;;;;5025386;28;20323;-88
2023/01/05 06:39:27;;;;;;;5.53;2.00;;;;;;;;;;5003969;28;20227;-88
2023/01/05 06:41:55;;;;;;;4.18;2.42;;;;;;;;;;5017228;28;20274;-87
2023/01/05 06:44:23;;;;;;;2.95;2.33;;;;;;;;;;5012204;28;20770;-88
2023/01/05 06:46:51;;;;;;;2.58;1.77;;;;;;;;;;5020203;28;20237;-88
2023/01/05 06:49:18;;;;;;;6.10;2.63;;;;;;;;;;5024906;28;20642;-88
2023/01/05 06:51:46;;;;;;;2.92;1.88;;;;;;;;;;5008943;28;20311;-88
2023/01/05 06:54:13;;;;;;;3.35;1.73;;;;;;;;;;5017328;28;20313;-88
2023/01/05 06:56:41;;;;;;;2.88;2.30;;;;;;;;;;5016272;28;20696;-88
2023/01/05 06:59:13;;;;;;;4.25;1.60;;;;;;;;;;5011339;28;20716;-88
2023/01/05 07:01:42;;;;;;;5.35;2.80;;;;;;;;;;5013340;28;20278;-88
2023/01/05 07:04:10;;;;;;;3.60;2.17;;;;;;;;;;5016518;28;20695;-87
2023/01/05 07:06:37;;;;;;;6.93;2.05;;;;;;;;;;5017424;28;20646;-88
2023/01/05 07:09:05;;;;;;;6.72;2.50;;;;;;;;;;5015619;28;20265;-88
2023/01/05 07:11:34;;;;;;;4.03;2.30;;;;;;;;;;5013236;28;20286;-88
2023/01/05 07:14:02;;;;;;;2.55;1.70;;;;;;;;;;5014494;28;20219;-88
2023/01/05 07:16:29;;;;;;;6.10;2.50;;;;;;;;;;5022605;28;20623;-88
2023/01/05 07:18:58;;;;;;;1.83;1.55;;;;;;;;;;5033201;28;20288;-88
2023/01/05 07:21:26;;;;;;;3.25;1.90;;;;;;;;;;5034281;28;20242;-88
2023/01/05 07:23:53;;;;;;;4.25;2.00;;;;;;;;;;5034697;28;20226;-88
2023/01/05 07:26:21;;;;;;;4.03;2.13;;;;;;;;;;5014879;28;20289;-88
2023/01/05 07:28:48;;;;;;;5.28;2.10;;;;;;;;;;5007567;28;20309;-88
2023/01/05 07:31:16;;;;;;;3.85;2.00;;;;;;;;;;5014634;28;20253;-88
2023/01/05 07:33:43;;;;;;;2.92;2.42;;;;;;;;;;5014517;28;20310;-88
2023/01/05 07:36:12;;;;;;;5.18;2.97;;;;;;;;;;4997948;28;20235;-88
2023/01/05 07:38:39;;;;;;;4.40;2.25;;;;;;;;;;5013886;28;20278;-88
2023/01/05 07:41:07;;;;;;;4.72;2.60;;;;;;;;;;5014246;28;20285;-88
2023/01/05 07:43:35;;;;;;;4.85;2.10;;;;;;;;;;5014491;28;20267;-88
2023/01/05 07:46:04;;;;;;;5.03;1.85;;;;;;;;;;5013855;28;20207;-88
2023/01/05 07:48:32;;;;;;;6.55;3.10;;;;;;;;;;5013887;28;20203;-89
2023/01/05 07:51:03;;;;;;;3.53;1.90;;;;;;;;;;5013710;28;20206;-88
2023/01/05 07:53:37;;;;;;;4.78;2.70;;;;;;;;;;5013789;28;20215;-88
2023/01/05 07:56:07;;;;;;;5.85;2.22;;;;;;;;;;5006743;28;20236;-88
2023/01/05 07:58:35;;;;;;;4.55;2.45;;;;;;;;;;5008696;28;20241;-88
2023/01/05 08:01:06;;;;;;;4.10;2.35;;;;;;;;;;5003865;28;20230;-89
2023/01/05 08:03:34;;;;;;;6.38;3.40;;;;;;;;;;5013949;28;20285;-87
2023/01/05 08:06:05;;;;;;;5.93;2.63;;;;;;;;;;5017694;28;20203;-87
2023/01/05 08:08:34;;;;;;;5.10;3.00;;;;;;;;;;5015838;28;20213;-88
2023/01/05 08:11:05;;;;;;;2.60;1.90;;;;;;;;;;5014002;28;20209;-88
2023/01/05 08:16:17;;;;;;;4.50;2.10;;;;;;;;;;5013779;28;20209;-88
2023/01/05 08:18:45;;;;;;;3.03;1.85;;;;;;;;;;5013292;28;20209;-88
2023/01/05 08:21:12;;;;;;;7.50;2.40;;;;;;;;;;5013332;28;21920;-88
2023/01/05 08:23:41;;;;;;;4.70;2.40;;;;;;;;;;5018247;28;20290;-88
2023/01/05 08:26:12;;;;;;;5.88;2.97;;;;;;;;;;5016243;28;20215;-89
2023/01/05 08:28:40;;;;;;;5.38;2.40;;;;;;;;;;5009012;28;20233;-88
2023/01/05 08:31:10;;;;;;;3.15;2.00;;;;;;;;;;4998274;28;20225;-88
2023/01/05 08:33:38;;;;;;;3.53;2.00;;;;;;;;;;5011402;28;20214;-88
2023/01/05 08:36:09;;;;;;;1.63;1.50;;;;;;;;;;5018091;28;20195;-88
2023/01/05 08:38:47;;;;;;;4.28;2.08;;;;;;;;;;5017673;28;20202;-88
2023/01/05 08:41:19;;;;;;;3.72;1.85;;;;;;;;;;5017284;28;20262;-88
2023/01/05 08:43:51;;;;;;;3.42;1.83;;;;;;;;;;5022157;23;20330;-90
2023/01/05 08:46:19;;;;;;;2.78;1.70;;;;;;;;;;4995180;28;20207;-88
2023/01/05 08:48:49;;;;;;;4.15;1.80;;;;;;;;;;5000620;28;20291;-88
2023/01/05 08:51:18;;;;;;;2.97;1.80;;;;;;;;;;4994630;28;20299;-90
2023/01/05 08:53:47;;;;;;;3.30;1.58;;;;;;;;;;4999497;28;20254;-92
2023/01/05 08:56:15;;;;;;;2.50;2.10;;;;;;;;;;5003211;28;20211;-93
2023/01/05 08:58:43;;;;;;;2.67;1.63;;;;;;;;;;5006168;28;20244;-90
2023/01/05 09:01:16;;;;;;;4.72;1.92;;;;;;;;;;4983149;28;20251;-92
2023/01/05 09:03:44;;;;;;;4.10;1.55;;;;;;;;;;4984674;28;20200;-91
2023/01/05 09:06:13;;;;;;;2.40;1.50;;;;;;;;;;4993945;28;20251;-92
2023/01/05 09:08:43;;;;;;;2.25;1.35;;;;;;;;;;5005057;28;20223;-92
2023/01/05 09:11:17;;;;;;;3.55;2.10;;;;;;;;;;5007312;28;20219;-92
2023/01/05 09:18:58;;;;;;;3.25;1.55;;;;;;;;;;5032873;28;20232;-88
2023/01/05 09:21:26;;;;;;;3.13;1.63;;;;;;;;;;5031362;28;20207;-88
2023/01/05 09:23:53;;;;;;;2.78;1.83;;;;;;;;;;5054487;28;20228;-88
2023/01/05 09:26:22;;;;;;;5.53;2.00;;;;;;;;;;5056112;28;20248;-88
2023/01/05 09:28:49;;;;;;;5.07;2.50;;;;;;;;;;5056042;28;20197;-89
2023/01/05 09:31:20;;;;;;;5.10;1.70;;;;;;;;;;5056524;28;20293;-88
2023/01/05 09:33:48;;;;;;;5.75;2.42;;;;;;;;;;5058156;28;20263;-90
2023/01/05 09:36:18;;;;;;;2.72;1.70;;;;;;;;;;5059975;28;20221;-90
2023/01/05 09:38:50;;;;;;;4.47;2.10;;;;;;;;;;5059530;28;20602;-90
2023/01/05 09:41:24;;;;;;;4.85;1.92;;;;;;;;;;5060426;28;20217;-90
2023/01/05 09:43:54;;;;;;;3.45;1.73;;;;;;;;;;5060208;28;20217;-90
2023/01/05 09:46:25;;;;;;;3.75;2.63;;;;;;;;;;5060028;28;20220;-90
2023/01/05 09:48:55;;;;;;;4.30;2.17;;;;;;;;;;5020613;28;20191;-90
2023/01/05 09:51:23;;;;;;;2.13;1.75;;;;;;;;;;5020438;28;20180;-90
2023/01/05 09:53:50;;;;;;;4.15;3.05;;;;;;;;;;5019655;28;20219;-90
2023/01/05 09:56:28;;;;;;;7.50;2.80;;;;;;;;;;5019574;28;20241;-90
2023/01/05 09:59:02;;;;;;;5.53;2.33;;;;;;;;;;5037470;28;20725;-90
2023/01/05 10:01:29;;;;;;;3.55;1.58;;;;;;;;;;5040156;28;20665;-90
2023/01/05 10:04:00;;;;;;;2.08;1.60;;;;;;;;;;5039348;28;20270;-90
2023/01/05 10:06:33;;;;;;;3.88;2.63;;;;;;;;;;5046758;28;20182;-91
2023/01/05 10:09:02;;;;;;;3.55;1.70;;;;;;;;;;5059635;28;20650;-90
2023/01/05 10:14:26;;;;;;;3.85;1.75;;;;;;;;;;5031745;28;20347;-90
2023/01/05 10:16:54;;;;;;;2.72;1.60;;;;;;;;;;5059200;28;20252;-90
2023/01/05 10:19:22;;;;;;;1.88;1.48;;;;;;;;;;5059272;28;20166;-90
2023/01/05 10:22:00;;;;;;;2.28;1.40;;;;;;;;;;5059470;28;20202;-90
2023/01/05 10:24:37;;;;;;;3.38;2.33;;;;;;;;;;5059287;28;20249;-90
2023/01/05 10:27:12;;;;;;;2.95;1.52;;;;;;;;;;5059124;28;20223;-90
2023/01/05 10:29:44;;;;;;;2.85;1.52;;;;;;;;;;5059330;28;20209;-90
2023/01/05 10:32:24;;;;;;;2.45;1.80;;;;;;;;;;5058829;28;20241;-89
2023/01/05 10:34:57;;;;;;;1.23;1.13;;;;;;;;;;5058896;28;20218;-89
2023/01/05 10:37:56;;;;;;;4.32;2.08;;;;;;;;;;5058997;28;20198;-89
2023/01/05 10:40:33;;;;;;;3.00;2.03;;;;;;;;;;5059420;28;20229;-90
2023/01/05 10:43:30;;;;;;;5.25;1.90;;;;;;;;;;5048038;28;20249;-89
2023/01/05 10:45:58;;;;;;;4.07;1.63;;;;;;;;;;5039078;28;20195;-90
2023/01/05 10:48:38;;;;;;;3.15;2.00;;;;;;;;;;5038241;28;20226;-89
2023/01/05 10:51:07;;;;;;;3.25;1.52;;;;;;;;;;5038912;28;20293;-89
2023/01/05 10:53:38;;;;;;;3.15;1.60;;;;;;;;;;5038967;28;20227;-90
2023/01/05 10:56:11;;;;;;;2.70;2.03;;;;;;;;;;5038767;28;20225;-88
2023/01/05 10:58:42;;;;;;;3.05;1.63;;;;;;;;;;5038963;28;20240;-89
2023/01/05 11:01:23;;;;;;;6.05;1.90;;;;;;;;;;5038651;28;20601;-90
2023/01/05 11:03:55;;;;;;;3.92;2.15;;;;;;;;;;5038339;28;20698;-90
2023/01/05 11:06:25;;;;;;;3.33;2.15;;;;;;;;;;5038395;28;20203;-90
2023/01/05 11:08:53;;;;;;;1.92;1.65;;;;;;;;;;5038073;28;20659;-89
2023/01/05 11:11:24;;;;;;;3.38;1.90;;;;;;;;;;5037973;28;20649;-90
2023/01/05 11:13:56;;;;;;;1.40;1.30;;;;;;;;;;5038275;28;20305;-90
2023/01/05 11:16:25;;;;;;;5.50;2.00;;;;;;;;;;5037943;28;20217;-90
2023/01/05 11:18:55;;;;;;;2.40;1.50;;;;;;;;;;5038179;28;20202;-89
2023/01/05 11:21:24;;;;;;;1.83;1.50;;;;;;;;;;5037852;28;20237;-90
2023/01/05 11:23:54;;;;;;;5.80;2.95;;;;;;;;;;5037609;28;20314;-89
2023/01/05 11:26:32;;;;;;;1.25;1.20;;;;;;;;;;5037922;28;20202;-89
2023/01/05 11:29:13;;;;;;;2.70;2.00;;;;;;;;;;5039759;28;20261;-88
2023/01/05 11:31:46;;;;;;;3.22;1.85;;;;;;;;;;5038479;28;20191;-90
2023/01/05 11:34:33;;;;;;;1.70;1.60;;;;;;;;;;5038476;28;21002;-89
2023/01/05 11:37:04;;;;;;;4.47;1.90;;;;;;;;;;5038317;28;20241;-88
2023/01/05 11:39:35;;;;;;;6.35;2.33;;;;;;;;;;5038784;28;20182;-88
2023/01/05 11:42:15;;;;;;;2.45;1.80;;;;;;;;;;5038552;28;20183;-89
2023/01/05 11:44:48;;;;;;;3.80;2.25;;;;;;;;;;5038517;28;20198;-89
2023/01/05 11:47:23;;;;;;;3.20;2.33;;;;;;;;;;5037523;28;20185;-89
2023/01/05 11:50:00;;;;;;;5.97;3.75;;;;;;;;;;5038056;28;20250;-89
2023/01/05 11:52:33;;;;;;;7.45;3.53;;;;;;;;;;5037582;28;20674;-89
2023/01/05 11:55:02;;;;;;;3.67;1.98;;;;;;;;;;5037220;28;20226;-89
2023/01/05 11:57:31;;;;;;;6.75;2.55;;;;;;;;;;5036432;28;20206;-89
2023/01/05 12:00:00;;;;;;;5.07;2.50;;;;;;;;;;5037742;28;20210;-88
2023/01/05 12:03:02;;;;;;;4.32;3.30;;;;;;;;;;5036195;28;20249;-88
2023/01/05 12:05:41;;;;;;;3.35;1.90;;;;;;;;;;5038233;28;20193;-89
2023/01/05 12:08:13;;;;;;;6.45;2.63;;;;;;;;;;5037346;28;20178;-90
2023/01/05 12:10:55;;;;;;;4.97;2.47;;;;;;;;;;5027801;28;20210;-90
2023/01/05 12:13:46;;;;;;;4.65;2.55;;;;;;;;;;5017172;28;20261;-89
2023/01/05 12:16:28;;;;;;;6.30;2.88;;;;;;;;;;5017415;28;20242;-89
2023/01/05 12:19:18;;;;;;;4.57;2.70;;;;;;;;;;5016973;28;20751;-89
2023/01/05 12:21:54;;;;;;;3.63;2.00;;;;;;;;;;5036435;28;20624;-88
2023/01/05 12:24:50;;;;;;;3.25;2.05;;;;;;;;;;5043885;28;20240;-89
2023/01/05 12:27:32;;;;;;;4.28;2.20;;;;;;;;;;5015234;28;20290;-88
2023/01/05 12:30:24;;;;;;;3.80;2.33;;;;;;;;;;5026918;28;20336;-87
2023/01/05 12:33:15;;;;;;;2.53;1.73;;;;;;;;;;5016620;28;20238;-88
2023/01/05 12:36:27;;;;;;;3.42;2.50;;;;;;;;;;5016507;28;20207;-88
2023/01/05 12:39:11;;;;;;;3.53;2.60;;;;;;;;;;5016776;28;20725;-89
2023/01/05 12:41:50;;;;;;;6.38;3.20;;;;;;;;;;5033598;28;20198;-88
2023/01/05 12:45:05;;;;;;;7.45;4.13;;;;;;;;;;5036977;28;20300;-87
2023/01/05 12:47:53;;;;;;;3.35;2.35;;;;;;;;;;5026224;28;20233;-88
2023/01/05 12:50:30;;;;;;;6.50;2.67;;;;;;;;;;5036214;28;20285;-88
2023/01/05 12:53:08;;;;;;;7.20;3.60;;;;;;;;;;5037130;28;20308;-88
2023/01/05 12:55:40;;;;;;;6.72;3.50;;;;;;;;;;5036165;28;20290;-88
2023/01/05 12:58:13;;;;;;;6.30;3.70;;;;;;;;;;5035983;28;20628;-89
2023/01/05 13:00:44;;;;;;;3.08;2.55;;;;;;;;;;5037238;28;20191;-88
2023/01/05 13:03:17;;;;;;;5.85;2.80;;;;;;;;;;5037205;28;20218;-88
2023/01/05 13:05:55;;;;;;;6.47;3.75;;;;;;;;;;5038051;28;20222;-89
2023/01/05 13:08:29;;;;;;;6.57;3.08;;;;;;;;;;5038790;28;20218;-88
2023/01/05 13:11:02;;;;;;;2.53;2.33;;;;;;;;;;5045888;28;20862;-88
2023/01/05 13:13:36;;;;;;;7.40;3.17;;;;;;;;;;5024601;28;20631;-89
2023/01/05 13:16:09;;;;;;;4.10;2.42;;;;;;;;;;5033441;28;20285;-88
2023/01/05 13:18:39;;;;;;;5.50;3.45;;;;;;;;;;5027271;28;20289;-88
2023/01/05 13:21:09;;;;;;;4.75;2.75;;;;;;;;;;5030477;28;20230;-88
2023/01/05 13:23:40;;;;;;;5.57;2.95;;;;;;;;;;5040138;28;20630;-88
2023/01/05 13:26:14;;;;;;;3.60;3.00;;;;;;;;;;5040487;28;20225;-89
2023/01/05 13:28:55;;;;;;;4.78;3.00;;;;;;;;;;5040076;28;20229;-89
2023/01/05 13:31:46;;;;;;;5.85;3.03;;;;;;;;;;5042021;28;20561;-89
2023/01/05 13:34:30;;;;;;;5.07;2.95;;;;;;;;;;5039063;28;20738;-89
2023/01/05 13:37:40;;;;;;;6.70;3.03;;;;;;;;;;5038839;28;20276;-88
2023/01/05 13:40:30;;;;;;;6.22;2.50;;;;;;;;;;5022373;28;20234;-89
2023/01/05 13:43:43;;;;;;;3.38;2.70;;;;;;;;;;5037261;28;20215;-89
2023/01/05 13:47:05;;;;;;;4.28;2.90;;;;;;;;;;5008501;28;20237;-89
2023/01/05 13:50:04;;;;;;;4.65;3.30;;;;;;;;;;5016562;28;20257;-90
2023/01/05 13:52:50;;;;;;;5.55;2.90;;;;;;;;;;5039999;28;20272;-89
2023/01/05 13:55:20;;;;;;;3.85;2.83;;;;;;;;;;5035546;28;20222;-89
2023/01/05 13:57:49;;;;;;;8.35;4.07;;;;;;;;;;5057503;28;20253;-89
2023/01/05 14:00:24;;;;;;;5.90;3.28;;;;;;;;;;5038374;28;20194;-88
2023/01/05 14:03:06;;;;;;;6.15;3.15;;;;;;;;;;5023063;28;20215;-88
2023/01/05 14:05:39;;;;;;;5.97;3.10;;;;;;;;;;5024806;28;20199;-88
2023/01/05 14:08:21;;;;;;;5.50;2.88;;;;;;;;;;5018564;28;20184;-89
2023/01/05 14:11:12;;;;;;;5.30;2.33;;;;;;;;;;5032566;28;20255;-88
2023/01/05 14:13:52;;;;;;;4.90;2.83;;;;;;;;;;5038190;28;20241;-89
2023/01/05 14:16:52;;;;;;;3.33;2.40;;;;;;;;;;5033533;28;20294;-88
2023/01/05 14:19:41;;;;;;;7.72;3.25;;;;;;;;;;5018439;28;20245;-88
2023/01/05 14:22:42;;;;;;;5.57;2.38;;;;;;;;;;5024383;28;20321;-89
2023/01/05 14:25:51;;;;;;;5.15;3.15;;;;;;;;;;5015674;28;20250;-88
2023/01/05 14:28:47;;;;;;;4.95;2.63;;;;;;;;;;5029078;28;20192;-88
2023/01/05 14:31:38;;;;;;;5.78;3.53;;;;;;;;;;5029838;28;20581;-89
2023/01/05 14:34:12;;;;;;;4.63;2.50;;;;;;;;;;5035226;28;20222;-88
2023/01/05 14:36:41;;;;;;;4.13;3.08;;;;;;;;;;5034912;28;20211;-88
2023/01/05 14:39:28;;;;;;;3.45;2.28;;;;;;;;;;5035008;28;20245;-89
2023/01/05 14:42:05;;;;;;;3.20;1.85;;;;;;;;;;5034728;28;20190;-89
2023/01/05 14:44:40;;;;;;;6.25;4.10;;;;;;;;;;5035090;28;21229;-89
2023/01/05 14:47:08;;;;;;;4.30;3.00;;;;;;;;;;5035018;28;20191;-88
2023/01/05 14:49:38;;;;;;;3.78;3.15;;;;;;;;;;5034874;28;20202;-89
2023/01/05 14:52:14;;;;;;;8.77;4.25;;;;;;;;;;5014838;28;20278;-89
2023/01/05 14:55:18;;;;;;;5.53;3.03;;;;;;;;;;5014803;28;20206;-88
2023/01/05 14:57:52;;;;;;;3.03;2.75;;;;;;;;;;5012272;28;20633;-88
2023/01/05 15:00:48;;;;;;;2.92;2.53;;;;;;;;;;5020616;28;20233;-89
2023/01/05 15:03:33;;;;;;;7.95;3.33;;;;;;;;;;5033991;28;20694;-87
2023/01/05 15:06:08;;;;;;;5.38;3.60;;;;;;;;;;5034527;28;20203;-89
2023/01/05 15:09:23;;;;;;;8.73;3.53;;;;;;;;;;5033915;28;20217;-87
2023/01/05 15:12:22;;;;;;;5.10;3.15;;;;;;;;;;5034319;28;20226;-89
2023/01/05 15:15:18;;;;;;;6.82;3.80;;;;;;;;;;5033912;28;20218;-89
2023/01/05 15:18:09;;;;;;;7.80;5.03;;;;;;;;;;5033822;28;20226;-89
2023/01/05 15:21:19;;;;;;;7.32;4.55;;;;;;;;;;5034037;28;20187;-88
2023/01/05 15:24:15;;;;;;;8.85;4.53;;;;;;;;;;5034006;28;20218;-89
2023/01/05 15:27:04;;;;;;;5.95;3.90;;;;;;;;;;5034060;28;20202;-88
2023/01/05 15:29:47;;;;;;;7.88;4.15;;;;;;;;;;5033881;28;20233;-88
2023/01/05 15:32:20;;;;;;;6.72;3.25;;;;;;;;;;5032940;28;20193;-87
2023/01/05 15:34:54;;;;;;;8.40;4.65;;;;;;;;;;5033825;28;20293;-88
2023/01/05 15:37:25;;;;;;;3.38;2.28;;;;;;;;;;5033418;28;20217;-88
2023/01/05 15:39:55;;;;;;;6.18;2.85;;;;;;;;;;5034292;28;20695;-89
2023/01/05 15:42:26;;;;;;;2.67;2.25;;;;;;;;;;5033746;28;20321;-87
2023/01/05 15:44:55;;;;;;;3.63;2.22;;;;;;;;;;5033519;28;20277;-88
2023/01/05 15:47:26;;;;;;;2.15;1.90;;;;;;;;;;5033509;28;20208;-87
2023/01/05 15:49:57;;;;;;;5.75;2.85;;;;;;;;;;5043984;28;20748;-86
2023/01/05 15:52:32;;;;;;;8.38;3.50;;;;;;;;;;5046574;28;20218;-88
2023/01/05 15:55:03;;;;;;;7.55;3.08;;;;;;;;;;5033524;28;20178;-88
2023/01/05 15:57:32;;;;;;;4.90;3.03;;;;;;;;;;5032457;28;20301;-88
2023/01/05 16:00:00;;;;;;;3.50;2.88;;;;;;;;;;5033437;28;20188;-88
2023/01/05 16:02:34;;;;;;;5.32;2.40;;;;;;;;;;5032972;28;20325;-88